Time;durP1;ratioP1;P1;durP2;ratioP2;P2;SDS_P1;SDS_P2;PMS_P1;PMS_P2;Temp;Humidity;BMP_temperature;BMP_pressure;BME280_temperature;BME280_humidity;BME280_pressure;Samples;Min_cycle;Max_cycle;Signal;HPM_P1;HPM_P2
2021/03/12 07:02:11;;;;;;;;;;;;;;;;;;5110938;23;1898;-72
2021/03/12 07:04:38;;;;;;;;;;;;;;;;;;4959475;28;801;-72
2021/03/12 07:07:03;;;;;;;;;;;;;;;;;;4960028;28;868;-71
2021/03/12 07:09:28;;;;;;;;;;;;;;;;;;4959669;28;861;-70
2021/03/12 07:11:57;;;;;;;;;;;;;;;;;;4959817;28;1453;-70
2021/03/12 07:14:23;;;;;;;;;;;;;;;;;;4958651;29;822;-71
2021/03/12 07:16:51;;;;;;;;;;;;;;;;;;4958501;29;1333;-71
2021/03/12 07:19:17;;;;;;;;;;;;;;;;;;4958382;29;1379;-70
2021/03/12 07:21:45;;;;;;;;;;;;;;;;;;4958363;28;1914;-72
2021/03/12 07:24:13;;;;;;;;;;;;;;;;;;4959433;28;782;-71
2021/03/12 07:26:45;;;;;;;;;;;;;;;;;;4959597;28;876;-70
2021/03/12 07:29:11;;;;;;;;;;;;;;;;;;4958233;29;904;-73
2021/03/12 07:31:38;;;;;;;;;;;;;;;;;;4958175;28;1551;-70
2021/03/12 07:34:09;;;;;;;;;;;;;;;;;;4958069;29;1549;-72
2021/03/12 07:36:34;;;;;;;;;;;;;;;;;;4959335;28;913;-72
2021/03/12 07:39:02;;;;;;;;;;;;;;;;;;4958326;29;1127;-70
2021/03/12 07:41:28;;;;;;;;;;;;;;;;;;4957975;28;1895;-72
2021/03/12 07:43:53;;;;;;;;;;;;;;;;;;4959149;28;806;-72
2021/03/12 07:46:19;;;;;;;;;;;;;;;;;;4959093;28;832;-73
2021/03/12 07:48:44;;;;;;;;;;;;;;;;;;4959483;28;810;-71
2021/03/12 07:51:15;;;;;;;;;;;;;;;;;;4959212;28;1286;-72
2021/03/12 07:53:44;;;;;;;;;;;;;;;;;;4958923;28;921;-71
2021/03/12 07:56:11;;;;;;;;;;;;;;;;;;4958993;28;932;-72
2021/03/12 07:58:53;;;;;;;;;;;;;;;;;;4958971;28;883;-72
2021/03/12 08:01:19;;;;;;;;;;;;;;;;;;4958630;28;1343;-71
2021/03/12 08:03:44;;;;;;;;;;;;;;;;;;4957385;29;1946;-73
2021/03/12 08:06:28;;;;;;;;;;;;;;;;;;4958834;28;860;-72
2021/03/12 08:08:53;;;;;;;;;;;;;;;;;;4957510;28;1479;-73
2021/03/12 08:11:22;;;;;;;;;;;;;;;;;;4958789;28;1314;-71
2021/03/12 08:13:48;;;;;;;;;;;;;;;;;;4958700;28;818;-73
2021/03/12 08:16:13;;;;;;;;;;;;;;;;;;4958114;28;888;-72
2021/03/12 08:18:38;;;;;;;;;;;;;;;;;;4958695;28;850;-73
2021/03/12 08:21:22;;;;;;;;;;;;;;;;;;4957331;28;1453;-71
2021/03/12 08:23:47;;;;;;;;;;;;;;;;;;4957153;29;1894;-71
2021/03/12 08:26:13;;;;;;;;;;;;;;;;;;4958229;28;1224;-72
2021/03/12 08:28:38;;;;;;;;;;;;;;;;;;4958564;28;913;-72
2021/03/12 08:31:03;;;;;;;;;;;;;;;;;;4958415;28;1283;-71
2021/03/12 08:33:31;;;;;;;;;;;;;;;;;;4958261;28;869;-73
2021/03/12 08:35:57;;;;;;;;;;;;;;;;;;4956935;29;897;-72
2021/03/12 08:38:22;;;;;;;;;;;;;;;;;;4958182;28;944;-72
2021/03/12 08:40:56;;;;;;;;;;;;;;;;;;4958159;28;1299;-72
2021/03/12 08:43:21;;;;;;;;;;;;;;;;;;4956856;28;1955;-71
2021/03/12 08:45:46;;;;;;;;;;;;;;;;;;4957802;28;820;-73
2021/03/12 08:48:12;;;;;;;;;;;;;;;;;;4958333;28;877;-73
2021/03/12 08:50:42;;;;;;;;;;;;;;;;;;4957010;28;1456;-71
2021/03/12 08:53:08;;;;;;;;;;;;;;;;;;4957756;28;904;-72
2021/03/12 08:55:35;;;;;;;;;;;;;;;;;;4958040;28;872;-72
2021/03/12 08:58:20;;;;;;;;;;;;;;;;;;4956493;28;1508;-72
2021/03/12 09:00:47;;;;;;;;;;;;;;;;;;4957663;28;1335;-72
2021/03/12 09:03:20;;;;;;;;;;;;;;;;;;4956614;29;1902;-71
2021/03/12 09:05:50;;;;;;;;;;;;;;;;;;4957757;28;797;-72
2021/03/12 09:08:20;;;;;;;;;;;;;;;;;;4957846;28;844;-71
2021/03/12 09:10:46;;;;;;;;;;;;;;;;;;4956497;28;1456;-72
2021/03/12 09:13:12;;;;;;;;;;;;;;;;;;4957485;28;983;-71
2021/03/12 09:15:38;;;;;;;;;;;;;;;;;;4956227;28;1304;-73
2021/03/12 09:18:03;;;;;;;;;;;;;;;;;;4957598;28;821;-71
2021/03/12 09:20:28;;;;;;;;;;;;;;;;;;4957775;28;1287;-71
2021/03/12 09:22:54;;;;;;;;;;;;;;;;;;4955984;29;1911;-72
2021/03/12 09:25:29;;;;;;;;;;;;;;;;;;4956573;29;888;-73
2021/03/12 09:27:58;;;;;;;;;;;;;;;;;;4955530;28;1468;-72
2021/03/12 09:30:24;;;;;;;;;;;;;;;;;;4957334;28;1327;-72
2021/03/12 09:32:49;;;;;;;;;;;;;;;;;;4955964;28;1247;-72
2021/03/12 09:35:16;;;;;;;;;;;;;;;;;;4957197;28;862;-72
2021/03/12 09:37:41;;;;;;;;;;;;;;;;;;4955729;28;1330;-72
2021/03/12 09:40:07;;;;;;;;;;;;;;;;;;4955779;28;1358;-73
2021/03/12 09:42:33;;;;;;;;;;;;;;;;;;4955754;29;1898;-73
2021/03/12 09:44:58;;;;;;;;;;;;;;;;;;4955681;29;1203;-72
2021/03/12 09:47:23;;;;;;;;;;;;;;;;;;4957132;28;904;-72
2021/03/12 09:49:49;;;;;;;;;;;;;;;;;;4955920;28;1280;-73
2021/03/12 09:52:18;;;;;;;;;;;;;;;;;;4955648;28;1378;-73
2021/03/12 09:54:44;;;;;;;;;;;;;;;;;;4956696;28;814;-72
2021/03/12 09:57:11;;;;;;;;;;;;;;;;;;4956938;28;798;-72
2021/03/12 09:59:38;;;;;;;;;;;;;;;;;;4957256;28;888;-72
2021/03/12 10:02:04;;;;;;;;;;;;;;;;;;4955534;28;1965;-72
2021/03/12 10:04:36;;;;;;;;;;;;;;;;;;4956671;28;814;-71
2021/03/12 10:07:01;;;;;;;;;;;;;;;;;;4955548;29;1402;-72
2021/03/12 10:09:28;;;;;;;;;;;;;;;;;;4956775;28;921;-72
2021/03/12 10:11:53;;;;;;;;;;;;;;;;;;4956702;28;1371;-73
2021/03/12 10:14:24;;;;;;;;;;;;;;;;;;4956584;28;790;-72
2021/03/12 10:17:08;;;;;;;;;;;;;;;;;;4956520;29;826;-71
2021/03/12 10:19:49;;;;;;;;;;;;;;;;;;4956635;28;884;-71
2021/03/12 10:22:17;;;;;;;;;;;;;;;;;;4956384;28;1895;-72
2021/03/12 10:24:44;;;;;;;;;;;;;;;;;;4955264;29;1434;-72
2021/03/12 10:27:09;;;;;;;;;;;;;;;;;;4956348;28;842;-72
2021/03/12 10:29:38;;;;;;;;;;;;;;;;;;4956504;28;1007;-71
2021/03/12 10:32:08;;;;;;;;;;;;;;;;;;4956260;28;1389;-73
2021/03/12 10:34:46;;;;;;;;;;;;;;;;;;4956502;28;896;-71
2021/03/12 10:37:15;;;;;;;;;;;;;;;;;;4956507;28;872;-73
2021/03/12 10:39:48;;;;;;;;;;;;;;;;;;4959587;28;911;-72
2021/03/12 10:42:14;;;;;;;;;;;;;;;;;;4958821;28;1894;-72
2021/03/12 10:44:53;;;;;;;;;;;;;;;;;;4960362;28;873;-72
2021/03/12 10:47:18;;;;;;;;;;;;;;;;;;4960330;28;860;-72
2021/03/12 10:49:44;;;;;;;;;;;;;;;;;;4960271;28;840;-72
2021/03/12 10:52:09;;;;;;;;;;;;;;;;;;4960040;28;1401;-73
2021/03/12 10:54:34;;;;;;;;;;;;;;;;;;4960248;28;794;-72
2021/03/12 10:56:59;;;;;;;;;;;;;;;;;;4959973;28;1007;-72
2021/03/12 10:59:25;;;;;;;;;;;;;;;;;;4960143;28;861;-72
2021/03/12 11:01:50;;;;;;;;;;;;;;;;;;4959891;28;1886;-71
2021/03/12 11:04:17;;;;;;;;;;;;;;;;;;4959793;28;913;-75
2021/03/12 11:06:42;;;;;;;;;;;;;;;;;;4958725;29;1198;-75
2021/03/12 11:09:13;;;;;;;;;;;;;;;;;;4958740;29;1217;-75
2021/03/12 11:11:41;;;;;;;;;;;;;;;;;;4959769;28;1354;-74
2021/03/12 11:14:07;;;;;;;;;;;;;;;;;;4959714;28;900;-75
2021/03/12 11:16:32;;;;;;;;;;;;;;;;;;4959585;28;829;-75
2021/03/12 11:18:58;;;;;;;;;;;;;;;;;;4958409;29;1235;-74
2021/03/12 11:21:25;;;;;;;;;;;;;;;;;;4958219;28;1473;-75
2021/03/12 11:23:52;;;;;;;;;;;;;;;;;;4959540;28;1902;-75
2021/03/12 11:26:20;;;;;;;;;;;;;;;;;;4959342;28;842;-74
2021/03/12 11:28:45;;;;;;;;;;;;;;;;;;4958349;28;947;-74
2021/03/12 11:31:13;;;;;;;;;;;;;;;;;;4959534;28;1378;-75
2021/03/12 11:33:38;;;;;;;;;;;;;;;;;;4958198;29;921;-73
2021/03/12 11:36:05;;;;;;;;;;;;;;;;;;4959303;28;884;-72
2021/03/12 11:38:30;;;;;;;;;;;;;;;;;;4958089;29;1248;-73
2021/03/12 11:40:56;;;;;;;;;;;;;;;;;;4957961;28;1675;-73
2021/03/12 11:43:22;;;;;;;;;;;;;;;;;;4957944;28;1895;-75
2021/03/12 11:45:47;;;;;;;;;;;;;;;;;;4959304;28;936;-75
2021/03/12 11:48:12;;;;;;;;;;;;;;;;;;4957992;29;913;-75
2021/03/12 11:50:38;;;;;;;;;;;;;;;;;;4958392;28;1294;-74
2021/03/12 11:53:04;;;;;;;;;;;;;;;;;;4957660;28;1296;-74
2021/03/12 11:55:30;;;;;;;;;;;;;;;;;;4958987;28;814;-75
2021/03/12 11:57:55;;;;;;;;;;;;;;;;;;4957473;28;810;-74
2021/03/12 12:00:21;;;;;;;;;;;;;;;;;;4957830;28;1318;-74
2021/03/12 12:02:46;;;;;;;;;;;;;;;;;;4957363;28;1974;-75
2021/03/12 12:05:12;;;;;;;;;;;;;;;;;;4958861;28;841;-75
2021/03/12 12:07:38;;;;;;;;;;;;;;;;;;4957753;28;1345;-74
2021/03/12 12:10:04;;;;;;;;;;;;;;;;;;4958748;28;991;-75
2021/03/12 12:12:29;;;;;;;;;;;;;;;;;;4958427;28;1318;-75
2021/03/12 12:14:54;;;;;;;;;;;;;;;;;;4958739;28;830;-75
2021/03/12 12:17:20;;;;;;;;;;;;;;;;;;4957262;29;1318;-74
2021/03/12 12:19:46;;;;;;;;;;;;;;;;;;4957351;29;1161;-75
2021/03/12 12:22:12;;;;;;;;;;;;;;;;;;4958020;28;1894;-75
2021/03/12 12:24:38;;;;;;;;;;;;;;;;;;4957474;28;1125;-75
2021/03/12 12:27:04;;;;;;;;;;;;;;;;;;4957117;29;1353;-76
2021/03/12 12:29:30;;;;;;;;;;;;;;;;;;4956909;29;1453;-74
2021/03/12 12:31:55;;;;;;;;;;;;;;;;;;4957978;28;1401;-74
2021/03/12 12:34:20;;;;;;;;;;;;;;;;;;4958254;28;984;-76
2021/03/12 12:36:46;;;;;;;;;;;;;;;;;;4958283;28;846;-74
2021/03/12 12:39:11;;;;;;;;;;;;;;;;;;4958194;28;896;-75
2021/03/12 12:41:40;;;;;;;;;;;;;;;;;;4957912;28;1906;-74
2021/03/12 12:44:08;;;;;;;;;;;;;;;;;;4958037;28;861;-74
2021/03/12 12:46:33;;;;;;;;;;;;;;;;;;4958269;28;940;-74
2021/03/12 12:48:59;;;;;;;;;;;;;;;;;;4958142;28;825;-72
2021/03/12 12:51:24;;;;;;;;;;;;;;;;;;4956799;28;1343;-72
2021/03/12 12:53:49;;;;;;;;;;;;;;;;;;4956336;29;1748;-75
2021/03/12 12:56:15;;;;;;;;;;;;;;;;;;4956569;28;1184;-74
2021/03/12 12:58:40;;;;;;;;;;;;;;;;;;4956613;29;1305;-75
2021/03/12 13:01:05;;;;;;;;;;;;;;;;;;4957395;28;1425;-74
2021/03/12 13:03:30;;;;;;;;;;;;;;;;;;4956461;28;1965;-73
2021/03/12 13:05:56;;;;;;;;;;;;;;;;;;4957716;28;1052;-74
2021/03/12 13:08:21;;;;;;;;;;;;;;;;;;4957561;28;911;-74
2021/03/12 13:10:47;;;;;;;;;;;;;;;;;;4956318;28;1425;-73
2021/03/12 13:13:14;;;;;;;;;;;;;;;;;;4957466;28;865;-74
2021/03/12 13:15:39;;;;;;;;;;;;;;;;;;4957474;28;809;-73
2021/03/12 13:18:04;;;;;;;;;;;;;;;;;;4957152;28;830;-75
2021/03/12 13:20:31;;;;;;;;;;;;;;;;;;4957344;28;1291;-73
2021/03/12 13:22:56;;;;;;;;;;;;;;;;;;4957101;28;1890;-74
2021/03/12 13:25:22;;;;;;;;;;;;;;;;;;4957597;28;860;-74
2021/03/12 13:27:48;;;;;;;;;;;;;;;;;;4957196;28;900;-74
2021/03/12 13:30:15;;;;;;;;;;;;;;;;;;4955836;28;1361;-74
2021/03/12 13:32:41;;;;;;;;;;;;;;;;;;4957122;28;881;-74
2021/03/12 13:35:06;;;;;;;;;;;;;;;;;;4955945;29;1551;-73
2021/03/12 13:37:32;;;;;;;;;;;;;;;;;;4956165;28;1338;-74
2021/03/12 13:39:59;;;;;;;;;;;;;;;;;;4955743;29;831;-74
2021/03/12 13:42:26;;;;;;;;;;;;;;;;;;4956870;28;1891;-74
2021/03/12 13:44:52;;;;;;;;;;;;;;;;;;4957139;28;849;-74
2021/03/12 13:47:17;;;;;;;;;;;;;;;;;;4957013;28;917;-74
2021/03/12 13:49:42;;;;;;;;;;;;;;;;;;4955570;29;1633;-74
2021/03/12 13:52:08;;;;;;;;;;;;;;;;;;4955368;28;1397;-74
2021/03/12 13:54:33;;;;;;;;;;;;;;;;;;4957012;28;941;-74
2021/03/12 13:56:59;;;;;;;;;;;;;;;;;;4955649;28;830;-74
2021/03/12 13:59:24;;;;;;;;;;;;;;;;;;4955904;29;1367;-74
2021/03/12 14:01:49;;;;;;;;;;;;;;;;;;4955140;28;1970;-74
2021/03/12 14:04:14;;;;;;;;;;;;;;;;;;4955450;28;1477;-74
2021/03/12 14:06:40;;;;;;;;;;;;;;;;;;4956589;28;960;-74
2021/03/12 14:09:13;;;;;;;;;;;;;;;;;;4955510;28;1225;-74
2021/03/12 14:11:38;;;;;;;;;;;;;;;;;;4955161;28;1370;-74
2021/03/12 14:14:03;;;;;;;;;;;;;;;;;;4956177;28;897;-73
2021/03/12 14:16:28;;;;;;;;;;;;;;;;;;4956500;28;838;-73
2021/03/12 14:18:53;;;;;;;;;;;;;;;;;;4955370;28;1213;-74
2021/03/12 14:21:19;;;;;;;;;;;;;;;;;;4956486;28;1326;-75
2021/03/12 14:23:45;;;;;;;;;;;;;;;;;;4956053;28;1973;-75
2021/03/12 14:26:10;;;;;;;;;;;;;;;;;;4956499;28;857;-75
2021/03/12 14:28:35;;;;;;;;;;;;;;;;;;4955568;29;1147;-75
2021/03/12 14:31:00;;;;;;;;;;;;;;;;;;4956313;28;1386;-74
2021/03/12 14:33:26;;;;;;;;;;;;;;;;;;4956384;28;822;-74
2021/03/12 14:35:51;;;;;;;;;;;;;;;;;;4956435;28;896;-74
2021/03/12 14:38:16;;;;;;;;;;;;;;;;;;4955171;28;1272;-74
2021/03/12 14:40:41;;;;;;;;;;;;;;;;;;4956221;28;1311;-74
2021/03/12 14:43:07;;;;;;;;;;;;;;;;;;4954929;29;1951;-74
2021/03/12 14:45:32;;;;;;;;;;;;;;;;;;4956398;28;849;-76
2021/03/12 14:47:57;;;;;;;;;;;;;;;;;;4955175;28;1205;-74
2021/03/12 14:50:23;;;;;;;;;;;;;;;;;;4956274;28;1327;-75
2021/03/12 14:52:48;;;;;;;;;;;;;;;;;;4956142;28;830;-74
2021/03/12 14:55:13;;;;;;;;;;;;;;;;;;4955194;28;833;-75
2021/03/12 14:57:39;;;;;;;;;;;;;;;;;;4956323;28;897;-74
2021/03/12 15:00:05;;;;;;;;;;;;;;;;;;4956320;28;893;-74
2021/03/12 15:02:30;;;;;;;;;;;;;;;;;;4954715;28;1883;-75
2021/03/12 15:04:55;;;;;;;;;;;;;;;;;;4955935;28;842;-74
2021/03/12 15:07:20;;;;;;;;;;;;;;;;;;4956446;28;905;-74
2021/03/12 15:09:46;;;;;;;;;;;;;;;;;;4955218;28;1318;-75
2021/03/12 15:12:11;;;;;;;;;;;;;;;;;;4956003;28;1446;-74
2021/03/12 15:14:36;;;;;;;;;;;;;;;;;;4954895;28;814;-74
2021/03/12 15:17:01;;;;;;;;;;;;;;;;;;4955959;28;816;-74
2021/03/12 15:19:27;;;;;;;;;;;;;;;;;;4956156;28;934;-74
2021/03/12 15:21:53;;;;;;;;;;;;;;;;;;4956184;28;1891;-75
2021/03/12 15:24:18;;;;;;;;;;;;;;;;;;4955938;28;853;-74
2021/03/12 15:26:44;;;;;;;;;;;;;;;;;;4958771;28;889;-75
2021/03/12 15:29:09;;;;;;;;;;;;;;;;;;4958304;29;1366;-75
2021/03/12 15:31:35;;;;;;;;;;;;;;;;;;4959491;28;1283;-76
2021/03/12 15:34:00;;;;;;;;;;;;;;;;;;4959464;28;822;-75
2021/03/12 15:36:25;;;;;;;;;;;;;;;;;;4958462;29;1176;-75
2021/03/12 15:38:51;;;;;;;;;;;;;;;;;;4958052;28;1265;-74
2021/03/12 15:41:16;;;;;;;;;;;;;;;;;;4959657;28;1307;-75
2021/03/12 15:43:41;;;;;;;;;;;;;;;;;;4959103;28;1955;-74
2021/03/12 15:46:07;;;;;;;;;;;;;;;;;;4959484;28;810;-74
2021/03/12 15:48:32;;;;;;;;;;;;;;;;;;4959271;28;845;-74
2021/03/12 15:50:57;;;;;;;;;;;;;;;;;;4958850;28;1354;-74
2021/03/12 15:53:22;;;;;;;;;;;;;;;;;;4957928;28;1316;-75
2021/03/12 15:55:48;;;;;;;;;;;;;;;;;;4959065;28;922;-74
2021/03/12 15:58:13;;;;;;;;;;;;;;;;;;4957939;29;1289;-75
2021/03/12 16:00:38;;;;;;;;;;;;;;;;;;4958659;28;1397;-75
2021/03/12 16:03:03;;;;;;;;;;;;;;;;;;4958807;28;1959;-74
2021/03/12 16:05:29;;;;;;;;;;;;;;;;;;4957548;28;1171;-76
2021/03/12 16:07:55;;;;;;;;;;;;;;;;;;4958704;28;826;-74
2021/03/12 16:10:20;;;;;;;;;;;;;;;;;;4958936;28;1318;-75
2021/03/12 16:12:45;;;;;;;;;;;;;;;;;;4957451;28;1359;-75
2021/03/12 16:15:11;;;;;;;;;;;;;;;;;;4958981;28;960;-74
2021/03/12 16:17:36;;;;;;;;;;;;;;;;;;4958681;28;1149;-74
2021/03/12 16:20:03;;;;;;;;;;;;;;;;;;4958831;28;845;-74
2021/03/12 16:22:28;;;;;;;;;;;;;;;;;;4957149;28;1948;-75
2021/03/12 16:24:54;;;;;;;;;;;;;;;;;;4958566;28;908;-75
2021/03/12 16:27:20;;;;;;;;;;;;;;;;;;4958606;28;861;-75
2021/03/12 16:29:45;;;;;;;;;;;;;;;;;;4958363;28;821;-74
2021/03/12 16:32:12;;;;;;;;;;;;;;;;;;4958257;28;1350;-75
2021/03/12 16:34:37;;;;;;;;;;;;;;;;;;4941466;29;1245;-74
2021/03/12 16:37:02;;;;;;;;;;;;;;;;;;4958456;28;826;-74
2021/03/12 16:39:29;;;;;;;;;;;;;;;;;;4958483;28;826;-74
2021/03/12 16:41:58;;;;;;;;;;;;;;;;;;4957968;28;1951;-74
2021/03/12 16:44:24;;;;;;;;;;;;;;;;;;4958107;29;1325;-75
2021/03/12 16:46:50;;;;;;;;;;;;;;;;;;4958168;29;862;-75
2021/03/12 16:49:24;;;;;;;;;;;;;;;;;;4956742;28;1348;-74
2021/03/12 16:51:49;;;;;;;;;;;;;;;;;;4956814;28;1417;-75
2021/03/12 16:54:15;;;;;;;;;;;;;;;;;;4957881;28;881;-75
2021/03/12 16:56:40;;;;;;;;;;;;;;;;;;4958071;28;877;-75
2021/03/12 16:59:06;;;;;;;;;;;;;;;;;;4958367;28;854;-75
2021/03/12 17:01:35;;;;;;;;;;;;;;;;;;4957669;28;1315;-74
2021/03/12 17:04:02;;;;;;;;;;;;;;;;;;4956018;29;1898;-74
2021/03/12 17:06:30;;;;;;;;;;;;;;;;;;4956353;29;1263;-75
2021/03/12 17:08:55;;;;;;;;;;;;;;;;;;4957819;28;865;-74
2021/03/12 17:11:22;;;;;;;;;;;;;;;;;;4957427;28;1306;-75
2021/03/12 17:13:48;;;;;;;;;;;;;;;;;;4955888;29;1264;-75
2021/03/12 17:16:14;;;;;;;;;;;;;;;;;;4956014;29;1566;-75
2021/03/12 17:18:39;;;;;;;;;;;;;;;;;;4955631;29;1251;-75
2021/03/12 17:21:07;;;;;;;;;;;;;;;;;;4956254;28;1342;-75
2021/03/12 17:23:32;;;;;;;;;;;;;;;;;;4955195;29;1973;-74
2021/03/12 17:25:59;;;;;;;;;;;;;;;;;;4955783;28;1205;-74
2021/03/12 17:28:25;;;;;;;;;;;;;;;;;;4956230;28;1241;-74
2021/03/12 17:30:51;;;;;;;;;;;;;;;;;;4956647;28;1390;-74
2021/03/12 17:33:16;;;;;;;;;;;;;;;;;;4956675;28;893;-73
2021/03/12 17:35:43;;;;;;;;;;;;;;;;;;4956739;28;893;-75
2021/03/12 17:38:08;;;;;;;;;;;;;;;;;;4955592;29;1280;-74
2021/03/12 17:40:33;;;;;;;;;;;;;;;;;;4956431;28;1385;-75
2021/03/12 17:43:00;;;;;;;;;;;;;;;;;;4956523;28;1960;-75
2021/03/12 17:45:26;;;;;;;;;;;;;;;;;;4956438;28;842;-75
2021/03/12 17:47:51;;;;;;;;;;;;;;;;;;4955975;28;814;-75
2021/03/12 17:50:17;;;;;;;;;;;;;;;;;;4956568;28;1291;-74
2021/03/12 17:52:42;;;;;;;;;;;;;;;;;;4955375;28;1448;-74
2021/03/12 17:55:08;;;;;;;;;;;;;;;;;;4955092;29;1214;-74
2021/03/12 17:57:33;;;;;;;;;;;;;;;;;;4954840;28;854;-75
2021/03/12 17:59:58;;;;;;;;;;;;;;;;;;4956154;28;881;-75
2021/03/12 18:02:24;;;;;;;;;;;;;;;;;;4954529;28;1965;-75
2021/03/12 18:04:49;;;;;;;;;;;;;;;;;;4956277;28;952;-75
2021/03/12 18:07:14;;;;;;;;;;;;;;;;;;4955274;29;1578;-74
2021/03/12 18:09:39;;;;;;;;;;;;;;;;;;4956242;28;850;-74
2021/03/12 18:12:05;;;;;;;;;;;;;;;;;;4954525;28;1354;-74
2021/03/12 18:14:30;;;;;;;;;;;;;;;;;;4955907;28;1190;-74
2021/03/12 18:16:55;;;;;;;;;;;;;;;;;;4955082;29;846;-74
2021/03/12 18:19:21;;;;;;;;;;;;;;;;;;4954829;29;1210;-74
2021/03/12 18:21:46;;;;;;;;;;;;;;;;;;4955798;28;1402;-75
2021/03/12 18:24:11;;;;;;;;;;;;;;;;;;4954548;28;1958;-74
2021/03/12 18:26:36;;;;;;;;;;;;;;;;;;4954752;29;1230;-74
2021/03/12 18:29:02;;;;;;;;;;;;;;;;;;4955973;28;928;-75
2021/03/12 18:31:27;;;;;;;;;;;;;;;;;;4955727;28;1294;-74
2021/03/12 18:33:52;;;;;;;;;;;;;;;;;;4955470;28;956;-75
2021/03/12 18:36:18;;;;;;;;;;;;;;;;;;4955861;28;810;-74
2021/03/12 18:38:43;;;;;;;;;;;;;;;;;;4956010;28;932;-74
2021/03/12 18:41:09;;;;;;;;;;;;;;;;;;4955464;28;1350;-74
2021/03/12 18:43:34;;;;;;;;;;;;;;;;;;4955608;28;1894;-74
2021/03/12 18:46:00;;;;;;;;;;;;;;;;;;4954216;28;1315;-74
2021/03/12 18:48:25;;;;;;;;;;;;;;;;;;4955771;28;810;-75
2021/03/12 18:50:51;;;;;;;;;;;;;;;;;;4954179;28;1343;-74
2021/03/12 18:53:16;;;;;;;;;;;;;;;;;;4955515;28;814;-75
2021/03/12 18:55:41;;;;;;;;;;;;;;;;;;4954333;29;1233;-74
2021/03/12 18:58:07;;;;;;;;;;;;;;;;;;4955727;28;980;-74
2021/03/12 19:00:33;;;;;;;;;;;;;;;;;;4958288;28;1319;-74
2021/03/12 19:02:58;;;;;;;;;;;;;;;;;;4959172;28;1900;-75
2021/03/12 19:05:24;;;;;;;;;;;;;;;;;;4959311;28;878;-74
2021/03/12 19:07:49;;;;;;;;;;;;;;;;;;4958074;29;1640;-74
2021/03/12 19:10:16;;;;;;;;;;;;;;;;;;4958050;28;1391;-74
2021/03/12 19:12:41;;;;;;;;;;;;;;;;;;4957866;29;898;-74
2021/03/12 19:15:08;;;;;;;;;;;;;;;;;;4958973;28;838;-74
2021/03/12 19:17:36;;;;;;;;;;;;;;;;;;4957926;29;1126;-74
2021/03/12 19:20:03;;;;;;;;;;;;;;;;;;4959230;28;798;-74
2021/03/12 19:22:29;;;;;;;;;;;;;;;;;;4958733;28;1891;-74
2021/03/12 19:24:54;;;;;;;;;;;;;;;;;;4959079;28;825;-74
2021/03/12 19:27:20;;;;;;;;;;;;;;;;;;4957556;28;901;-74
2021/03/12 19:29:45;;;;;;;;;;;;;;;;;;4959055;28;984;-75
2021/03/12 19:32:10;;;;;;;;;;;;;;;;;;4958814;28;1410;-75
2021/03/12 19:34:36;;;;;;;;;;;;;;;;;;4958664;28;967;-75
2021/03/12 19:37:01;;;;;;;;;;;;;;;;;;4958847;28;1076;-75
2021/03/12 19:39:27;;;;;;;;;;;;;;;;;;4958798;28;826;-75
2021/03/12 19:41:52;;;;;;;;;;;;;;;;;;4958677;28;1973;-75
2021/03/12 19:44:17;;;;;;;;;;;;;;;;;;4958309;28;874;-75
2021/03/12 19:46:43;;;;;;;;;;;;;;;;;;4958669;28;916;-75
2021/03/12 19:49:08;;;;;;;;;;;;;;;;;;4958819;28;861;-75
2021/03/12 19:51:34;;;;;;;;;;;;;;;;;;4958852;28;1371;-76
2021/03/12 19:54:00;;;;;;;;;;;;;;;;;;4958132;28;888;-74
2021/03/12 19:56:25;;;;;;;;;;;;;;;;;;4957229;28;838;-74
2021/03/12 19:58:50;;;;;;;;;;;;;;;;;;4958355;28;921;-74
2021/03/12 20:01:16;;;;;;;;;;;;;;;;;;4958282;28;1459;-74
2021/03/12 20:03:41;;;;;;;;;;;;;;;;;;4957969;29;1898;-74
2021/03/12 20:06:06;;;;;;;;;;;;;;;;;;4958371;28;817;-74
2021/03/12 20:08:33;;;;;;;;;;;;;;;;;;4958355;28;806;-74
2021/03/12 20:10:59;;;;;;;;;;;;;;;;;;4957722;28;1405;-74
2021/03/12 20:13:24;;;;;;;;;;;;;;;;;;4957981;28;853;-75
2021/03/12 20:15:49;;;;;;;;;;;;;;;;;;4958267;28;853;-74
2021/03/12 20:18:14;;;;;;;;;;;;;;;;;;4957981;28;1035;-75
2021/03/12 20:20:40;;;;;;;;;;;;;;;;;;4957100;28;1373;-75
2021/03/12 20:23:05;;;;;;;;;;;;;;;;;;4957941;28;1890;-75
2021/03/12 20:25:30;;;;;;;;;;;;;;;;;;4957977;28;909;-76
2021/03/12 20:27:55;;;;;;;;;;;;;;;;;;4957725;28;920;-74
2021/03/12 20:30:21;;;;;;;;;;;;;;;;;;4957917;28;1335;-75
2021/03/12 20:32:46;;;;;;;;;;;;;;;;;;4956648;29;1310;-65
2021/03/12 20:35:13;;;;;;;;;;;;;;;;;;4957307;28;1146;-71
2021/03/12 20:37:39;;;;;;;;;;;;;;;;;;4960207;23;2165;-82
2021/03/12 20:40:05;;;;;;;;;;;;;;;;;;4917993;29;896;-82
2021/03/12 20:42:31;;;;;;;;;;;;;;;;;;4917560;29;1907;-82
2021/03/12 20:44:56;;;;;;;;;;;;;;;;;;4917783;29;1560;-82
2021/03/12 20:47:21;;;;;;;;;;;;;;;;;;4919156;29;810;-82
2021/03/12 20:49:47;;;;;;;;;;;;;;;;;;4919237;29;802;-82
2021/03/12 20:52:12;;;;;;;;;;;;;;;;;;4917694;29;1358;-82
2021/03/12 20:54:37;;;;;;;;;;;;;;;;;;4918359;29;910;-82
2021/03/12 20:57:03;;;;;;;;;;;;;;;;;;4919443;29;878;-81
2021/03/12 20:59:28;;;;;;;;;;;;;;;;;;4919252;29;1172;-82
2021/03/12 21:01:54;;;;;;;;;;;;;;;;;;4919052;29;1482;-81
2021/03/12 21:04:19;;;;;;;;;;;;;;;;;;4918743;29;1882;-82
2021/03/12 21:06:44;;;;;;;;;;;;;;;;;;4919360;29;865;-81
2021/03/12 21:09:10;;;;;;;;;;;;;;;;;;4919035;29;850;-81
2021/03/12 21:11:36;;;;;;;;;;;;;;;;;;4918121;29;1343;-80
2021/03/12 21:14:02;;;;;;;;;;;;;;;;;;4918544;29;838;-81
2021/03/12 21:16:28;;;;;;;;;;;;;;;;;;4918757;29;924;-81
2021/03/12 21:18:54;;;;;;;;;;;;;;;;;;4917656;29;1223;-80
2021/03/12 21:21:19;;;;;;;;;;;;;;;;;;4917295;29;1271;-80
2021/03/12 21:23:44;;;;;;;;;;;;;;;;;;4917266;29;1891;-81
2021/03/12 21:26:11;;;;;;;;;;;;;;;;;;4917247;29;1546;-81
2021/03/12 21:28:37;;;;;;;;;;;;;;;;;;4917469;29;1258;-81
2021/03/12 21:31:02;;;;;;;;;;;;;;;;;;4918416;29;1311;-81
2021/03/12 21:33:27;;;;;;;;;;;;;;;;;;4917490;29;815;-81
2021/03/12 21:35:53;;;;;;;;;;;;;;;;;;4918227;29;838;-81
2021/03/12 21:38:19;;;;;;;;;;;;;;;;;;4922147;29;1265;-81
2021/03/12 21:40:44;;;;;;;;;;;;;;;;;;4923699;29;1491;-81
2021/03/12 21:43:09;;;;;;;;;;;;;;;;;;4925039;29;1900;-81
2021/03/12 21:45:35;;;;;;;;;;;;;;;;;;4916900;29;1574;-81
2021/03/12 21:48:02;;;;;;;;;;;;;;;;;;4918116;29;866;-81
2021/03/12 21:50:28;;;;;;;;;;;;;;;;;;4918134;29;1280;-81
2021/03/12 21:52:53;;;;;;;;;;;;;;;;;;4916566;29;894;-81
2021/03/12 21:55:19;;;;;;;;;;;;;;;;;;4918330;29;847;-82
2021/03/12 21:57:45;;;;;;;;;;;;;;;;;;4917874;29;900;-82
2021/03/12 22:00:12;;;;;;;;;;;;;;;;;;4917830;29;1399;-82
2021/03/12 22:02:37;;;;;;;;;;;;;;;;;;4916144;29;1966;-81
2021/03/12 22:05:03;;;;;;;;;;;;;;;;;;4918165;29;786;-82
2021/03/12 22:07:28;;;;;;;;;;;;;;;;;;4917993;29;881;-82
2021/03/12 22:09:53;;;;;;;;;;;;;;;;;;4916809;29;938;-82
2021/03/12 22:12:18;;;;;;;;;;;;;;;;;;4917540;29;1355;-82
2021/03/12 22:14:44;;;;;;;;;;;;;;;;;;4918169;29;901;-82
2021/03/12 22:17:09;;;;;;;;;;;;;;;;;;4918215;29;874;-82
2021/03/12 22:19:34;;;;;;;;;;;;;;;;;;4918045;29;914;-82
2021/03/12 22:22:00;;;;;;;;;;;;;;;;;;4916100;29;1973;-82
2021/03/12 22:24:25;;;;;;;;;;;;;;;;;;4918084;29;806;-82
2021/03/12 22:26:51;;;;;;;;;;;;;;;;;;4917883;29;865;-82
2021/03/12 22:29:17;;;;;;;;;;;;;;;;;;4916721;29;1331;-82
2021/03/12 22:31:42;;;;;;;;;;;;;;;;;;4917580;29;1327;-82
2021/03/12 22:34:07;;;;;;;;;;;;;;;;;;4917379;29;1438;-82
2021/03/12 22:36:32;;;;;;;;;;;;;;;;;;4916537;29;1286;-82
2021/03/12 22:38:58;;;;;;;;;;;;;;;;;;4917727;29;901;-82
2021/03/12 22:41:23;;;;;;;;;;;;;;;;;;4917506;29;1319;-82
2021/03/12 22:43:49;;;;;;;;;;;;;;;;;;4915938;29;1973;-82
2021/03/12 22:46:14;;;;;;;;;;;;;;;;;;4916722;29;1156;-82
2021/03/12 22:48:39;;;;;;;;;;;;;;;;;;4917782;29;819;-82
2021/03/12 22:51:04;;;;;;;;;;;;;;;;;;4917518;29;1394;-81
2021/03/12 22:53:30;;;;;;;;;;;;;;;;;;4916103;29;830;-82
2021/03/12 22:55:55;;;;;;;;;;;;;;;;;;4917517;29;799;-82
2021/03/12 22:58:23;;;;;;;;;;;;;;;;;;4917770;29;908;-81
2021/03/12 23:00:48;;;;;;;;;;;;;;;;;;4917652;29;1284;-81
2021/03/12 23:03:13;;;;;;;;;;;;;;;;;;4915888;29;1902;-81
2021/03/12 23:05:40;;;;;;;;;;;;;;;;;;4917557;29;826;-82
2021/03/12 23:08:11;;;;;;;;;;;;;;;;;;4917157;29;816;-82
2021/03/12 23:10:41;;;;;;;;;;;;;;;;;;4917163;29;1311;-81
2021/03/12 23:13:06;;;;;;;;;;;;;;;;;;4916813;29;893;-82
2021/03/12 23:15:32;;;;;;;;;;;;;;;;;;4917171;29;818;-81
2021/03/12 23:17:57;;;;;;;;;;;;;;;;;;4917125;29;823;-82
2021/03/12 23:20:23;;;;;;;;;;;;;;;;;;4917248;29;1288;-81
2021/03/12 23:22:49;;;;;;;;;;;;;;;;;;4916850;29;1903;-81
2021/03/12 23:25:15;;;;;;;;;;;;;;;;;;4916426;29;1530;-81
2021/03/12 23:27:40;;;;;;;;;;;;;;;;;;4916154;29;1207;-82
2021/03/12 23:30:11;;;;;;;;;;;;;;;;;;4915849;29;1210;-82
2021/03/12 23:32:36;;;;;;;;;;;;;;;;;;4916620;29;913;-82
2021/03/12 23:35:03;;;;;;;;;;;;;;;;;;4916317;29;1226;-82
2021/03/12 23:37:28;;;;;;;;;;;;;;;;;;4916844;29;947;-82
2021/03/12 23:39:53;;;;;;;;;;;;;;;;;;4917057;29;818;-82
2021/03/12 23:42:19;;;;;;;;;;;;;;;;;;4915286;29;1907;-80
2021/03/12 23:44:44;;;;;;;;;;;;;;;;;;4916032;29;1183;-81
2021/03/12 23:47:09;;;;;;;;;;;;;;;;;;4919518;29;949;-80
2021/03/12 23:49:34;;;;;;;;;;;;;;;;;;4919626;29;1378;-81
2021/03/12 23:52:00;;;;;;;;;;;;;;;;;;4918960;29;1378;-81
2021/03/12 23:54:25;;;;;;;;;;;;;;;;;;4920457;29;937;-81
2021/03/12 23:56:50;;;;;;;;;;;;;;;;;;4919083;29;1236;-81
2021/03/12 23:59:15;;;;;;;;;;;;;;;;;;4920711;29;811;-81
